Time;durP1;ratioP1;P1;durP2;ratioP2;P2;SDS_P1;SDS_P2;PMS_P1;PMS_P2;Temp;Humidity;BMP_temperature;BMP_pressure;BME280_temperature;BME280_humidity;BME280_pressure;Samples;Min_cycle;Max_cycle;Signal;HPM_P1;HPM_P2
2022/09/09 18:02:06;;;;;;;5.60;1.90;;;18.80;99.90;;;;;;5103107;27;2066783;-88
2022/09/09 18:04:50;;;;;;;6.68;1.80;;;;;;;;;;5140726;27;20030;-89
2022/09/09 18:07:36;;;;;;;5.03;2.00;;;;;;;;;;5149678;27;20036;-88
2022/09/09 18:10:20;;;;;;;7.65;1.88;;;;;;;;;;5159752;27;20040;-90
2022/09/09 18:13:07;;;;;;;7.47;2.00;;;;;;;;;;5152297;27;20443;-89
2022/09/09 18:15:52;;;;;;;5.13;2.00;;;;;;;;;;5153017;27;20097;-91
2022/09/09 18:18:37;;;;;;;6.18;1.80;;;;;;;;;;5152404;27;20083;-89
2022/09/09 18:21:22;;;;;;;6.68;2.22;;;;;;;;;;5148168;27;20041;-88
2022/09/09 18:24:11;;;;;;;4.70;1.55;;;18.20;99.90;;;;;;5147242;27;20045;-88
2022/09/09 18:26:55;;;;;;;7.38;2.03;;;;;;;;;;5155606;27;20071;-88
2022/09/09 18:29:40;;;;;;;5.32;2.00;;;;;;;;;;5137342;27;20125;-87
2022/09/09 18:32:26;;;;;;;6.28;3.28;;;;;;;;;;5151647;27;20086;-88
2022/09/09 18:35:10;;;;;;;6.03;2.40;;;18.30;99.90;;;;;;5148752;27;20087;-91
2022/09/09 18:37:54;;;;;;;6.65;2.60;;;17.50;99.90;;;;;;5141247;27;20123;-91
2022/09/09 18:40:39;;;;;;;6.47;2.45;;;17.50;99.90;;;;;;5148081;27;20508;-90
2022/09/09 18:43:24;;;;;;;8.48;2.50;;;;;;;;;;5152152;27;20073;-90
2022/09/09 18:46:08;;;;;;;6.63;2.25;;;;;;;;;;5148898;27;20057;-91
2022/09/09 18:48:54;;;;;;;5.45;2.10;;;;;;;;;;5165485;27;20069;-90
2022/09/09 18:51:43;;;;;;;7.93;3.00;;;17.30;99.90;;;;;;5153622;27;20442;-89
2022/09/09 18:54:30;;;;;;;5.95;2.60;;;17.20;99.90;;;;;;5159148;27;20034;-88
2022/09/09 18:57:14;;;;;;;8.68;2.58;;;;;;;;;;5148728;27;20119;-87
2022/09/09 18:59:59;;;;;;;7.35;2.88;;;17.10;99.90;;;;;;5153237;27;20126;-89
2022/09/09 19:02:43;;;;;;;5.97;2.45;;;17.20;99.90;;;;;;5148907;27;20435;-89
2022/09/09 19:05:30;;;;;;;5.30;2.15;;;;;;;;;;5148203;27;20087;-88
2022/09/09 19:08:15;;;;;;;4.55;2.40;;;;;;;;;;5138728;27;20509;-88
2022/09/09 19:11:04;;;;;;;8.27;2.83;;;17.00;99.90;;;;;;5126608;27;20042;-88
2022/09/09 19:13:53;;;;;;;6.70;2.60;;;16.90;99.90;;;;;;5133147;27;20159;-88
2022/09/09 19:16:39;;;;;;;8.20;2.92;;;16.80;99.90;;;;;;5151438;27;20092;-88
2022/09/09 19:19:27;;;;;;;7.47;2.60;;;17.00;99.90;;;;;;5139532;27;21359;-87
2022/09/09 19:22:11;;;;;;;7.38;3.13;;;17.10;99.90;;;;;;5134719;27;20408;-88
2022/09/09 19:24:57;;;;;;;9.40;2.92;;;16.50;99.90;;;;;;5126973;27;20089;-88
2022/09/09 19:27:42;;;;;;;8.23;3.20;;;16.60;99.90;;;;;;5126879;27;20074;-87
2022/09/09 19:30:26;;;;;;;11.18;3.00;;;16.60;99.90;;;;;;5110862;27;20049;-88
2022/09/09 19:33:10;;;;;;;8.10;2.97;;;16.60;99.90;;;;;;5149827;27;20072;-88
2022/09/09 19:36:01;;;;;;;7.18;3.33;;;16.30;99.90;;;;;;5140516;27;20122;-89
2022/09/09 19:38:45;;;;;;;5.47;3.10;;;;;;;;;;5147077;27;20030;-88
2022/09/09 19:41:30;;;;;;;6.47;3.30;;;;;;;;;;5147411;27;20053;-89
2022/09/09 19:44:15;;;;;;;9.10;3.45;;;16.20;99.90;;;;;;5111443;27;20050;-88
2022/09/09 19:47:00;;;;;;;10.45;3.25;;;16.30;99.90;;;;;;5146725;27;20076;-88
2022/09/09 19:49:45;;;;;;;5.93;3.47;;;;;;;;;;5133042;27;20096;-89
2022/09/09 19:52:29;;;;;;;5.45;3.20;;;16.50;99.90;;;;;;5136924;27;20040;-88
2022/09/09 19:55:13;;;;;;;8.25;3.17;;;16.00;99.90;;;;;;5119408;27;20046;-88
2022/09/09 19:57:59;;;;;;;6.15;3.58;;;;;;;;;;5132994;27;20038;-88
2022/09/09 20:00:44;;;;;;;7.75;3.47;;;16.20;99.90;;;;;;5119889;27;20529;-88
2022/09/09 20:03:28;;;;;;;7.65;3.45;;;16.30;99.90;;;;;;5142486;27;20083;-88
2022/09/09 20:06:15;;;;;;;8.45;3.35;;;16.40;99.90;;;;;;5134885;27;20440;-89
2022/09/09 20:09:01;;;;;;;5.70;3.33;;;16.10;99.90;;;;;;5138070;27;20042;-89
2022/09/09 20:11:48;;;;;;;6.63;3.40;;;16.60;99.90;;;;;;5141444;27;20058;-88
2022/09/09 20:14:32;;;;;;;7.18;3.33;;;15.70;99.90;;;;;;5117947;27;20175;-89
2022/09/09 20:17:16;;;;;;;8.10;3.05;;;16.00;99.90;;;;;;5124073;27;20041;-89
2022/09/09 20:20:02;;;;;;;5.72;3.55;;;15.90;99.90;;;;;;5137626;27;20046;-88
2022/09/09 20:22:47;;;;;;;5.95;3.28;;;15.60;99.90;;;;;;5131281;27;20041;-86
2022/09/09 20:25:35;;;;;;;8.75;3.97;;;15.70;99.90;;;;;;5118678;27;20046;-88
2022/09/09 20:28:21;;;;;;;5.97;3.65;;;15.90;99.90;;;;;;5151523;27;20038;-89
2022/09/09 20:31:08;;;;;;;9.52;4.00;;;15.80;99.90;;;;;;5155336;27;20045;-88
2022/09/09 20:33:54;;;;;;;8.60;4.47;;;16.20;99.90;;;;;;5154581;27;20047;-88
2022/09/09 20:36:40;;;;;;;8.15;3.75;;;;;;;;;;5138219;27;20592;-90
2022/09/09 20:39:25;;;;;;;6.68;4.00;;;15.80;99.90;;;;;;5140053;27;20042;-89
2022/09/09 20:42:10;;;;;;;8.63;4.00;;;15.80;99.90;;;;;;5121936;27;20046;-89
2022/09/09 20:44:54;;;;;;;10.15;4.43;;;15.70;99.90;;;;;;5130170;27;20045;-89
2022/09/09 20:47:38;;;;;;;9.00;4.90;;;16.10;99.90;;;;;;5139167;27;20076;-89
2022/09/09 20:50:23;;;;;;;9.45;4.43;;;15.90;99.90;;;;;;5104757;27;20119;-89
2022/09/09 20:53:07;;;;;;;7.63;4.65;;;15.60;99.90;;;;;;5139169;27;20041;-89
2022/09/09 20:55:52;;;;;;;9.73;4.28;;;;;;;;;;5124142;27;20038;-89
2022/09/09 20:58:37;;;;;;;12.07;5.30;;;15.80;99.90;;;;;;5118724;27;20046;-88
2022/09/09 21:01:21;;;;;;;10.80;4.70;;;15.80;99.90;;;;;;5134047;27;20053;-90
2022/09/09 21:04:08;;;;;;;7.38;4.18;;;15.50;99.90;;;;;;5133758;27;20099;-89
2022/09/09 21:06:52;;;;;;;9.30;5.30;;;15.60;99.90;;;;;;5154411;27;20390;-89
2022/09/09 21:09:37;;;;;;;10.07;5.18;;;15.80;99.90;;;;;;5138944;27;20038;-89
2022/09/09 21:12:22;;;;;;;6.47;4.80;;;15.40;99.90;;;;;;5104184;27;20073;-89
2022/09/09 21:15:06;;;;;;;7.43;4.60;;;15.70;99.90;;;;;;5122634;27;20858;-88
2022/09/09 21:17:53;;;;;;;8.32;4.60;;;15.40;99.90;;;;;;5153880;27;20500;-89
2022/09/09 21:20:37;;;;;;;12.95;5.18;;;15.60;99.90;;;;;;5124750;27;20178;-88
2022/09/09 21:23:22;;;;;;;10.48;5.70;;;15.30;99.90;;;;;;5154202;27;20398;-88
2022/09/09 21:26:06;;;;;;;6.43;5.28;;;15.70;99.90;;;;;;5138084;27;20033;-88
2022/09/09 21:28:52;;;;;;;8.65;5.97;;;;;;;;;;5138357;27;20088;-88
2022/09/09 21:31:36;;;;;;;11.48;6.85;;;;;;;;;;5154141;27;20029;-89
2022/09/09 21:34:21;;;;;;;11.95;7.07;;;15.60;99.90;;;;;;5138574;27;20397;-89
2022/09/09 21:37:05;;;;;;;11.18;7.18;;;15.50;99.90;;;;;;5138159;27;20041;-89
2022/09/09 21:39:50;;;;;;;13.25;6.47;;;;;;;;;;5123350;27;20117;-88
2022/09/09 21:42:34;;;;;;;8.57;5.75;;;15.60;99.90;;;;;;5154223;27;20565;-89
2022/09/09 21:45:18;;;;;;;11.15;6.57;;;15.60;99.90;;;;;;5119755;27;20114;-88
2022/09/09 21:48:04;;;;;;;11.63;7.25;;;16.20;99.90;;;;;;5130050;27;20068;-89
2022/09/09 21:50:49;;;;;;;8.55;6.55;;;;;;;;;;5146836;27;20088;-89
2022/09/09 21:53:33;;;;;;;9.32;6.68;;;15.40;99.90;;;;;;5119292;27;20039;-89
2022/09/09 21:56:18;;;;;;;11.32;6.55;;;15.50;99.90;;;;;;5153795;27;20088;-89
2022/09/09 21:59:03;;;;;;;12.13;7.05;;;15.30;99.90;;;;;;5153432;27;20042;-89
2022/09/09 22:01:47;;;;;;;15.85;7.88;;;15.50;99.90;;;;;;5138132;27;20076;-89
2022/09/09 22:04:32;;;;;;;16.05;7.40;;;15.50;99.90;;;;;;5138320;27;20056;-89
2022/09/09 22:07:16;;;;;;;13.77;8.32;;;15.60;99.90;;;;;;5110756;27;20045;-89
2022/09/09 22:10:00;;;;;;;13.27;8.65;;;15.30;99.90;;;;;;5153047;27;20393;-88
2022/09/09 22:12:44;;;;;;;11.13;8.27;;;15.40;99.90;;;;;;5138280;27;20042;-88
2022/09/09 22:15:31;;;;;;;12.65;8.55;;;15.10;99.90;;;;;;5153595;27;20038;-90
2022/09/09 22:18:17;;;;;;;10.88;7.68;;;;;;;;;;5123556;27;20512;-88
2022/09/09 22:21:16;;;;;;;15.85;8.43;;;15.00;99.90;;;;;;5123321;27;20083;-89
2022/09/09 22:24:03;;;;;;;12.13;7.93;;;15.10;99.90;;;;;;5153064;27;20138;-88
2022/09/09 22:26:49;;;;;;;12.77;8.70;;;;;;;;;;5137976;27;20038;-89
2022/09/09 22:29:34;;;;;;;16.52;9.25;;;15.20;99.90;;;;;;5153702;27;20040;-89
2022/09/09 22:32:18;;;;;;;12.57;8.55;;;;;;;;;;5137273;27;20055;-88
2022/09/09 22:35:03;;;;;;;15.85;9.65;;;;;;;;;;5121436;27;20042;-89
2022/09/09 22:37:47;;;;;;;15.10;8.98;;;15.10;99.90;;;;;;5124201;28;20073;-89
2022/09/09 22:40:35;;;;;;;13.63;8.75;;;15.30;99.90;;;;;;5117409;28;20066;-89
2022/09/09 22:43:20;;;;;;;13.15;8.98;;;14.90;99.90;;;;;;5133820;27;20050;-89
2022/09/09 22:46:04;;;;;;;13.20;9.18;;;15.00;99.90;;;;;;5152938;27;20453;-89
2022/09/09 22:48:49;;;;;;;16.25;9.63;;;14.90;99.90;;;;;;5127468;27;20037;-89
2022/09/09 22:51:33;;;;;;;11.75;9.02;;;15.10;99.90;;;;;;5106843;27;20103;-89
2022/09/09 22:54:20;;;;;;;14.45;9.90;;;15.10;99.90;;;;;;5153131;27;20077;-89
2022/09/09 22:57:06;;;;;;;18.27;10.75;;;14.60;99.90;;;;;;5156820;27;20065;-89
2022/09/09 22:59:51;;;;;;;13.15;10.30;;;14.60;99.90;;;;;;5113352;27;20038;-88
2022/09/09 23:02:37;;;;;;;13.90;10.23;;;14.50;99.90;;;;;;5141284;27;20107;-89
2022/09/09 23:05:26;;;;;;;19.33;11.27;;;14.80;99.90;;;;;;5156582;27;20049;-88
2022/09/09 23:08:10;;;;;;;12.50;9.90;;;14.60;99.90;;;;;;5156379;27;20053;-89
2022/09/09 23:10:54;;;;;;;14.90;10.20;;;14.80;99.90;;;;;;5126993;27;20065;-89
2022/09/09 23:13:45;;;;;;;13.00;9.30;;;14.70;99.90;;;;;;5141589;27;20061;-89
2022/09/09 23:16:33;;;;;;;12.82;9.73;;;15.50;99.90;;;;;;5153601;27;20037;-88
2022/09/09 23:19:18;;;;;;;17.20;10.05;;;14.60;99.90;;;;;;5105854;27;20045;-88
2022/09/09 23:22:03;;;;;;;12.10;9.73;;;;;;;;;;5135803;27;20444;-89
2022/09/09 23:24:48;;;;;;;13.70;10.18;;;14.60;99.90;;;;;;5121993;27;20092;-89
2022/09/09 23:27:32;;;;;;;16.83;10.00;;;14.50;99.90;;;;;;5156881;27;20054;-88
2022/09/09 23:30:17;;;;;;;15.85;11.68;;;14.50;99.90;;;;;;5125949;27;20402;-89
2022/09/09 23:33:01;;;;;;;19.73;10.40;;;14.90;99.90;;;;;;5140999;27;20037;-88
2022/09/09 23:35:45;;;;;;;16.02;11.20;;;14.80;99.90;;;;;;5156543;27;20500;-88
2022/09/09 23:38:30;;;;;;;16.60;11.63;;;14.30;99.90;;;;;;5156143;27;20083;-88
2022/09/09 23:41:20;;;;;;;17.77;11.23;;;14.50;99.90;;;;;;5125656;27;20053;-89
2022/09/09 23:44:06;;;;;;;13.93;9.95;;;14.60;99.90;;;;;;5155960;27;20519;-89
2022/09/09 23:46:50;;;;;;;16.65;11.10;;;14.50;99.90;;;;;;5140830;27;20064;-89
2022/09/09 23:49:38;;;;;;;15.00;10.95;;;15.20;99.90;;;;;;5126133;27;20033;-90
2022/09/09 23:52:25;;;;;;;21.77;12.07;;;;;;;;;;5155516;27;20041;-89
2022/09/09 23:55:09;;;;;;;16.45;12.02;;;14.60;99.90;;;;;;5128650;27;20398;-88
2022/09/09 23:57:54;;;;;;;14.80;11.15;;;14.80;99.90;;;;;;5126148;27;20038;-88
